Waukegan, Illinois
Current Conditions -  °F | °C
As of 9:55 AM on Wednesday 28 Jan 2015 (Local Time) from KUGN Reporting Station
Clear Clear  
Wind Chill: 19°   Ceiling: Unl
Heat Index: 29°   Visibility: 10mi
Dew Point: 16°   Wind: 13mph
Humidity: 58%   Direction: 180°S
Pressure: 30.25"   Gusts: NA
Location:  42.36°N, 87.83°W
Report Text: KUGN 281555Z 18011KT 10SM CLR M02/M09 A3025 RMK AO2 SLP259 T10171089
Loading
Personal Weather Stations






























Interactive Weather Map New forecast layout! Learn more

10-Day Weather Forecast

Advertisements
Track Severe Weather on mobile